Impacts TAF Board INFO
FOR SITUATIONAL AWARENESS. NOT TO BE USED FOR FLIGHT PLANNING PURPOSES.
IDs:

KIAH - Houston/Bush Intl, TX, US

Issued at 0349 UTC 25 Mar 2017
Updated at 0359 UTC 25 Mar 2017
Potential Impact None Slight Moderate High
Time0353Z 25/04Z 25/05Z 25/06Z 25/07Z 25/08Z 25/09Z 25/10Z 25/11Z 25/12Z 25/13Z 25/14Z 25/15Z 25/16Z
Type OBS PRVL
  [TEMP]  
PRVL PRVL PRVL PRVL PRVL PRVL PRVL PRVL PRVL PRVL PRVL PRVL
VIS 0.25 5
  [0.5]  
>6 >6 >6 >6 >6 >6 >6 >6 >6 >6 >6 >6
CIG 18 20
  [15]  
35 35 35 35 30 30 30 30 30 30 -- --
Cover OVC OVC
  [BKN]  
BKN BKN BKN BKN BKN BKN BKN BKN BKN BKN FEW FEW
FltCat LIFR MVFR
  [LIFR]  
VFR VFR VFR VFR MVFR MVFR MVFR MVFR MVFR MVFR VFR VFR
WX +TSGR +TSRA FG SHRA VCTS
  [TSRA]  
-- -- -- -- VCSH VCSH VCSH VCSH VCSH VCSH -- --
WDir 270 180
[VRB]
180 180 180 180 200 200 200 200 200 200 300 300
WSpd 29 13
  [35]  
11 11 11 11 7 7 7 7 7 7 12 12
WGst 44 19
  [19]  
-- -- -- -- -- -- -- -- -- -- -- --

Raw TAF
KIAH 250349Z 2504/2606 18013G19KT 5SM SHRA VCTS BKN020CB OVC040
  TEMPO 2504/2505 VRB35KT 1/2SM TSRA BKN015CB
  FM250500 18011KT P6SM SCT025 BKN035
  FM250900 20007KT P6SM VCSH SCT015 BKN030
  FM251500 30012KT P6SM FEW040
  FM260000 31004KT P6SM FEW250


Raw METAR
KIAH 250353Z 27029G44KT 1/4SM R27/2200VP6000FT +TSGRRA FG FEW009 BKN018CB OVC030 18/17 A2998 RMK AO2 PK WND 26044/0353 WSHFT 0333 RAB0259GRB51 SLP150 CONS LTGICCCCG ALQDS TS ALQDS MOV NE GR 1/4 P0053 T01830167
KIAH 250351Z 23021G29KT 200V260 1/2SM R27/2200VP6000FT +TSGRRA FG BKN018CB OVC035 19/17 A2999
KIAH 250345Z 18013G26KT 1/2SM R27/P6000FT +TSRA BKN018CB OVC035 19/17 A2999 RMK AO2 PK WND 30026/0338 RAB0259 PRESRR CONS LTGICCCCG SW-NE TS SW-NE MOV NE CB ALQDS MOV NE P0041 T01940167
KIAH 250338Z 28012G26KT 2SM +TSRA BR BKN018CB OVC035 22/21 A2997 RMK AO2 PK WND 30026/0338 RAB0259 CONS LTGICCCCG SW-NE TS SW-NE MOV NE CB ALQDS MOV NE P0021 T02220206
KIAH 250318Z 27007KT 4SM TSRA BR BKN020CB OVC037 23/21 A2995 RMK AO2 RAB0259 CONS LTGICCCCG ALQDS TS ALQDS MOV NE P0008 T02280206
KIAH 250308Z 18008G21KT 2 1/2SM R27/3500VP6000FT +TSRA BKN020CB OVC040 23/20 A2993 RMK AO2 RAB0259 FRQ LTGICCCCG SW-N TS SW-N MOV NE CB ALQDS MOV NE P0007 T02280200
KIAH 250253Z 18013G19KT 7SM TS BKN020CB OVC040 24/20 A2993 RMK AO2 TSB50 SLP135 OCNL LTGIC N-NE TS N-NE MOV NE CB DSNT SW NW-NE MOV NE T02390200 53010
KIAH 250250Z 18011G18KT 7SM TS BKN022CB OVC040 24/20 A2993 RMK AO2 TSB50 OCNL LTGIC NW-N TS NW-N MOV NE CB DSNT SW NW MOV NE
KIAH 250153Z 17014G20KT 10SM BKN020 BKN060 BKN250 24/19 A2992 RMK AO2 PK WND 16028/0107 LTG DSNT NW SLP131 CB DSNT SW AND NW MOV NE T02390194
KIAH 250053Z 17015G26KT 10SM BKN022 BKN060 OVC250 24/19 A2991 RMK AO2 PK WND 16028/0006 SLP127 T02390194

METAR Board
Radar Display
Forecast Discussion

FOR SITUATIONAL AWARENESS. NOT TO BE USED FOR FLIGHT PLANNING PURPOSES.

Page loaded:  03:59 UTC  |   08:59 PM Pacific  |   09:59 PM Mountain  |   10:59 PM Central  |   11:59 PM Eastern

 

ADVISORIES

FORECASTS

FORECASTS

OBSERVATIONS

USER TOOLS

ABOUT US